FranceFixed distance
Luchon Aneto Trail - Lat Challenge
5–6 Jul2025·2 stages
Distance
87km
Finishers
145113 men32 women
Winning time
9:36:56h
Median pace
5.98km/h
Pace distribution
145 finishers · 4.50–9.05 km/h · mean 6.12
Every finisher ran the same 87 km course, so these paces are directly comparable.
Histogram of finisher pace. 145 finishers ranged from 4.50 to 9.05 kilometres per hour, with a mean of 6.12 and a median of 5.98. The busiest band is 5.0 to 5.5 kilometres per hour, with 34 finishers.
Results
Ranks 1–50 of 145
| Rank | Runner | Time | Pace | Cat. | Placing |
|---|---|---|---|---|---|
| 1 | Satuc | 9:36:56h | 9.05 | M23 | 1st M · 1st M23 |
| 2 | *Ferrières Sur Ariège | 10:07:35h | 8.59 | — | 2nd M |
| 3 | *Clermont-L’Hérault | 10:24:59h | 8.35 | M23 | 3rd M · 2nd M23 |
| 4 | *Quimper | 10:43:00h | 8.12 | M23 | 4th M · 3rd M23 |
| 5 | AB Trail | 10:43:56h | 8.11 | M35 | 5th M · 1st M35 |
| 6 | Toac Orientation | 10:50:42h | 8.02 | — | 6th M |
| 7 | Team Rrunning Castres | 11:07:55h | 7.82 | M23 | 7th M · 4th M23 |
| 8 | ESF les Angles | 11:11:04h | 7.78 | — | 8th M |
| 9 | Athletico Toulouse Club | 11:17:12h | 7.71 | M45 | 9th M · 1st M45 |
| 10 | Heugas Jogging Club | 11:24:29h | 7.63 | M45 | 10th M · 2nd M45 |
| 11 | Team Runxv Running Con... | 11:33:01h | 7.53 | M50 | 11th M · 1st M50 |
| 12 | Mtnv | 11:36:47h | 7.49 | M50 | 12th M · 2nd M50 |
| 13 | Pastrèsvite | 11:40:36h | 7.45 | M23 | 13th M · 5th M23 |
| 14 | Vo2Max | 11:41:57h | 7.44 | M23 | 14th M · 6th M23 |
| 15 | les Runners du Pelam | 11:42:41h | 7.43 | M35 | 15th M · 2nd M35 |
| 16 | Talence Trail Team | 11:43:20h | 7.42 | M40 | 16th M · 1st M40 |
| 17 | Carcassonne Trail Club | 11:43:43h | 7.42 | M35 | 17th M · 3rd M35 |
| 18 | Team Rrunning Castres | 11:46:27h | 7.39 | M40 | 18th M · 2nd M40 |
| 19 | *Montlaur | 11:48:00h | 7.37 | M23 | 19th M · 7th M23 |
| 20 | Trail du Mourtis | 11:50:28h | 7.35 | M40 | 20th M · 3rd M40 |
| 21 | Runpiepsrun | 11:53:18h | 7.32 | M23 | 21st M · 8th M23 |
| 22 | Lourdes Triathlon | 11:55:59h | 7.29 | M23 | 22nd M · 9th M23 |
| 23 | Team Lurbel / les Givr... | 11:57:50h | 7.27 | W35 | 1st F · 1st W35 |
| 24 | Urban Runners Arcachon | 12:10:52h | 7.14 | M50 | 23rd M · 3rd M50 |
| 25 | *Bayonne | 12:27:03h | 6.99 | M23 | 24th M · 10th M23 |
| 26 | Airbus | 12:28:06h | 6.98 | M35 | 25th M · 4th M35 |
| 27 | *Toulouse | 12:32:49h | 6.93 | M23 | 26th M · 11th M23 |
| 28 | *Soumoulou | 12:34:10h | 6.92 | W23 | 2nd F · 1st W23 |
| 29 | Run IN Mouilleron | 12:38:47h | 6.88 | M40 | 27th M · 4th M40 |
| 30 | *Salles Sur Mer | 12:41:14h | 6.86 | M45 | 28th M · 3rd M45 |
| 31 | *Castanet Tolosan | 12:42:36h | 6.84 | M40 | 29th M · 5th M40 |
| 32 | *Sauveterre-Saint-Denis | 12:42:55h | 6.84 | M40 | 30th M · 6th M40 |
| 33 | Urban Runners Arcachon | 12:44:56h | 6.82 | M45 | 31st M · 4th M45 |
| 34 | *Aspet | 12:47:35h | 6.80 | W35 | 3rd F · 2nd W35 |
| 35 | Blagnac SC | 12:49:37h | 6.78 | M35 | 32nd M · 5th M35 |
| 36 | AS Run IN Niort | 12:50:53h | 6.77 | M23 | 33rd M · 12th M23 |
| 37 | CAF | 12:51:00h | 6.77 | M40 | 34th M · 7th M40 |
| 38 | *Casson | 12:51:36h | 6.76 | M23 | 35th M · 13th M23 |
| 39 | *Toulouse | 12:57:15h | 6.72 | M23 | 36th M · 14th M23 |
| 40 | Tarahumaras Muret Club | 12:58:36h | 6.70 | M40 | 37th M · 8th M40 |
| 41 | Tarahumaras Muret | 12:58:37h | 6.70 | M35 | 38th M · 6th M35 |
| 42 | *Miremont | 12:59:19h | 6.70 | M40 | 39th M · 9th M40 |
| 43 | LSO Trail | 13:04:40h | 6.65 | M45 | 40th M · 5th M45 |
| 44 | *Montaigut Sur Save | 13:07:38h | 6.63 | W45 | 4th F · 1st W45 |
| 45 | Urrugne | 13:11:53h | 6.59 | M40 | 41st M · 10th M40 |
| 46 | *Toulouse | 13:19:23h | 6.53 | — | 42nd M |
| 47 | Autourdutrail Team | 13:25:03h | 6.48 | M45 | 43rd M · 6th M45 |
| 48 | US Thouars | 13:26:08h | 6.47 | M50 | 44th M · 4th M50 |
| 49 | Run IN Mouilleron | 13:27:54h | 6.46 | M40 | 45th M · 11th M40 |
| 50 | Ramasseur de Champignons | 13:36:04h | 6.40 | M45 | 46th M · 7th M45 |
- 1Satuc1st M · 1st M23Time9:36:56hPace9.05Cat.M23
- 2*Ferrières Sur Ariège2nd MTime10:07:35hPace8.59
- 3*Clermont-L’Hérault3rd M · 2nd M23Time10:24:59hPace8.35Cat.M23
- 4*Quimper4th M · 3rd M23Time10:43:00hPace8.12Cat.M23
- 5AB Trail5th M · 1st M35Time10:43:56hPace8.11Cat.M35
- 6Toac Orientation6th MTime10:50:42hPace8.02
- 7Team Rrunning Castres7th M · 4th M23Time11:07:55hPace7.82Cat.M23
- 8ESF les Angles8th MTime11:11:04hPace7.78
- 9Athletico Toulouse Club9th M · 1st M45Time11:17:12hPace7.71Cat.M45
- 10Heugas Jogging Club10th M · 2nd M45Time11:24:29hPace7.63Cat.M45
- 11Team Runxv Running Con...11th M · 1st M50Time11:33:01hPace7.53Cat.M50
- 12Mtnv12th M · 2nd M50Time11:36:47hPace7.49Cat.M50
- 13Pastrèsvite13th M · 5th M23Time11:40:36hPace7.45Cat.M23
- 14Vo2Max14th M · 6th M23Time11:41:57hPace7.44Cat.M23
- 15les Runners du Pelam15th M · 2nd M35Time11:42:41hPace7.43Cat.M35
- 16Talence Trail Team16th M · 1st M40Time11:43:20hPace7.42Cat.M40
- 17Carcassonne Trail Club17th M · 3rd M35Time11:43:43hPace7.42Cat.M35
- 18Team Rrunning Castres18th M · 2nd M40Time11:46:27hPace7.39Cat.M40
- 19*Montlaur19th M · 7th M23Time11:48:00hPace7.37Cat.M23
- 20Trail du Mourtis20th M · 3rd M40Time11:50:28hPace7.35Cat.M40
- 21Runpiepsrun21st M · 8th M23Time11:53:18hPace7.32Cat.M23
- 22Lourdes Triathlon22nd M · 9th M23Time11:55:59hPace7.29Cat.M23
- 23Team Lurbel / les Givr...1st F · 1st W35Time11:57:50hPace7.27Cat.W35
- 24Urban Runners Arcachon23rd M · 3rd M50Time12:10:52hPace7.14Cat.M50
- 25*Bayonne24th M · 10th M23Time12:27:03hPace6.99Cat.M23
- 26Airbus25th M · 4th M35Time12:28:06hPace6.98Cat.M35
- 27*Toulouse26th M · 11th M23Time12:32:49hPace6.93Cat.M23
- 28*Soumoulou2nd F · 1st W23Time12:34:10hPace6.92Cat.W23
- 29Run IN Mouilleron27th M · 4th M40Time12:38:47hPace6.88Cat.M40
- 30*Salles Sur Mer28th M · 3rd M45Time12:41:14hPace6.86Cat.M45
- 31*Castanet Tolosan29th M · 5th M40Time12:42:36hPace6.84Cat.M40
- 32*Sauveterre-Saint-Denis30th M · 6th M40Time12:42:55hPace6.84Cat.M40
- 33Urban Runners Arcachon31st M · 4th M45Time12:44:56hPace6.82Cat.M45
- 34*Aspet3rd F · 2nd W35Time12:47:35hPace6.80Cat.W35
- 35Blagnac SC32nd M · 5th M35Time12:49:37hPace6.78Cat.M35
- 36AS Run IN Niort33rd M · 12th M23Time12:50:53hPace6.77Cat.M23
- 37CAF34th M · 7th M40Time12:51:00hPace6.77Cat.M40
- 38*Casson35th M · 13th M23Time12:51:36hPace6.76Cat.M23
- 39*Toulouse36th M · 14th M23Time12:57:15hPace6.72Cat.M23
- 40Tarahumaras Muret Club37th M · 8th M40Time12:58:36hPace6.70Cat.M40
- 41Tarahumaras Muret38th M · 6th M35Time12:58:37hPace6.70Cat.M35
- 42*Miremont39th M · 9th M40Time12:59:19hPace6.70Cat.M40
- 43LSO Trail40th M · 5th M45Time13:04:40hPace6.65Cat.M45
- 44*Montaigut Sur Save4th F · 1st W45Time13:07:38hPace6.63Cat.W45
- 45Urrugne41st M · 10th M40Time13:11:53hPace6.59Cat.M40
- 46*Toulouse42nd MTime13:19:23hPace6.53
- 47Autourdutrail Team43rd M · 6th M45Time13:25:03hPace6.48Cat.M45
- 48US Thouars44th M · 4th M50Time13:26:08hPace6.47Cat.M50
- 49Run IN Mouilleron45th M · 11th M40Time13:27:54hPace6.46Cat.M40
- 50Ramasseur de Champignons46th M · 7th M45Time13:36:04hPace6.40Cat.M45
Showing ranks 1–50 of 145